createdAt,value
2019-05-19T00:02:46.248Z,14.77
2019-05-19T00:05:33.592Z,15.82
2019-05-19T00:08:20.707Z,12.23
2019-05-19T00:11:07.540Z,8.05
2019-05-19T00:13:55.910Z,12.73
2019-05-19T00:16:43.073Z,11.68
2019-05-19T00:19:31.377Z,14.02
2019-05-19T00:22:19.416Z,14.93
2019-05-19T00:25:06.819Z,11.43
2019-05-19T00:27:54.303Z,12.07
2019-05-19T00:30:49.270Z,10.45
2019-05-19T00:33:36.497Z,11.60
2019-05-19T00:36:25.876Z,12.45
2019-05-19T00:39:10.642Z,12.52
2019-05-19T00:41:57.559Z,13.70
2019-05-19T00:44:45.315Z,15.57
2019-05-19T00:47:32.514Z,14.68
2019-05-19T00:50:19.436Z,15.25
2019-05-19T00:53:06.753Z,14.43
2019-05-19T00:55:53.853Z,14.52
2019-05-19T00:58:41.574Z,14.77
2019-05-19T01:01:30.941Z,14.87
2019-05-19T01:04:17.681Z,14.45
2019-05-19T01:07:04.784Z,16.25
2019-05-19T01:09:51.526Z,16.15
2019-05-19T01:12:38.813Z,16.05
2019-05-19T01:15:39.879Z,15.90
2019-05-19T01:18:27.173Z,14.70
2019-05-19T01:21:15.312Z,17.62
2019-05-19T01:24:02.330Z,14.02
2019-05-19T01:26:49.424Z,14.80
2019-05-19T01:29:36.137Z,14.82
2019-05-19T01:32:24.176Z,13.93
2019-05-19T01:35:11.160Z,14.65
2019-05-19T01:37:57.975Z,14.55
2019-05-19T01:40:46.650Z,17.67
2019-05-19T01:43:33.786Z,16.45
2019-05-19T01:49:30.444Z,17.02
2019-05-19T01:52:18.042Z,16.45
2019-05-19T01:55:08.541Z,16.37
2019-05-19T01:57:56.884Z,17.75
2019-05-19T02:00:44.325Z,15.95
2019-05-19T02:03:32.450Z,16.95
2019-05-19T02:06:34.326Z,16.12
2019-05-19T02:09:28.630Z,16.95
2019-05-19T02:12:15.716Z,17.05
2019-05-19T02:15:03.202Z,17.05
2019-05-19T02:17:50.759Z,18.23
2019-05-19T02:20:38.588Z,16.25
2019-05-19T02:23:39.971Z,15.98
2019-05-19T02:26:27.454Z,14.57
2019-05-19T02:29:15.387Z,16.95
2019-05-19T02:32:02.200Z,15.23
2019-05-19T02:34:50.262Z,16.77
2019-05-19T02:37:38.184Z,15.27
2019-05-19T02:40:24.923Z,15.23
2019-05-19T02:43:11.819Z,16.48
2019-05-19T02:45:59.830Z,17.20
2019-05-19T02:51:53.435Z,19.80
2019-05-19T02:54:41.460Z,17.73
2019-05-19T02:57:28.486Z,19.80
2019-05-19T03:00:16.089Z,17.58
2019-05-19T03:03:03.087Z,18.12
2019-05-19T03:05:53.517Z,16.97
2019-05-19T03:08:40.591Z,20.48
2019-05-19T03:11:27.554Z,19.48
2019-05-19T03:14:14.478Z,16.37
2019-05-19T03:17:01.292Z,18.20
2019-05-19T03:19:49.191Z,17.05
2019-05-19T03:22:36.943Z,17.23
2019-05-19T03:25:24.398Z,18.10
2019-05-19T03:28:11.704Z,17.45
2019-05-19T03:31:05.390Z,11.07
2019-05-19T03:33:56.787Z,12.17
2019-05-19T03:36:44.690Z,12.57
2019-05-19T03:39:35.593Z,11.50
2019-05-19T03:42:29.922Z,13.00
2019-05-19T03:45:17.093Z,12.47
2019-05-19T03:48:04.214Z,13.07
2019-05-19T03:50:51.064Z,13.53
2019-05-19T03:53:38.955Z,15.93
2019-05-19T03:56:34.980Z,15.07
2019-05-19T03:59:22.923Z,15.17
2019-05-19T04:02:24.681Z,17.70
2019-05-19T04:05:11.914Z,13.67
2019-05-19T04:07:59.614Z,16.37
2019-05-19T04:10:46.660Z,20.17
2019-05-19T04:13:34.264Z,16.83
2019-05-19T04:16:22.005Z,16.67
2019-05-19T04:19:09.429Z,15.30
2019-05-19T04:21:56.666Z,15.70
2019-05-19T04:24:43.802Z,16.83
2019-05-19T04:27:31.181Z,16.20
2019-05-19T04:30:18.467Z,18.77
2019-05-19T04:39:18.333Z,22.37
2019-05-19T04:42:05.580Z,21.58
2019-05-19T04:44:52.919Z,20.93
2019-05-19T04:47:39.732Z,21.10
2019-05-19T04:50:26.573Z,24.52
2019-05-19T04:53:14.140Z,22.98
2019-05-19T04:56:00.917Z,22.48
2019-05-19T04:58:47.994Z,21.05
2019-05-19T05:01:36.398Z,24.60
2019-05-19T05:04:29.101Z,22.25
2019-05-19T05:07:12.979Z,23.40
2019-05-19T05:10:01.141Z,21.25
2019-05-19T05:12:48.208Z,20.25
2019-05-19T05:15:35.681Z,21.67
2019-05-19T05:18:23.945Z,22.17
2019-05-19T05:21:11.948Z,21.73
2019-05-19T05:23:59.087Z,23.48
2019-05-19T05:26:46.201Z,22.23
2019-05-19T05:29:33.902Z,21.65
2019-05-19T05:32:20.780Z,21.77
2019-05-19T05:35:08.166Z,22.90
2019-05-19T05:37:56.816Z,22.08
2019-05-19T05:40:43.515Z,21.95
2019-05-19T05:43:31.343Z,23.87
2019-05-19T05:46:18.155Z,22.25
2019-05-19T05:49:06.089Z,20.50
2019-05-19T05:51:52.824Z,20.67
2019-05-19T05:54:40.275Z,20.88
2019-05-19T05:57:28.899Z,21.65
2019-05-19T06:00:16.087Z,20.77
2019-05-19T06:03:02.946Z,21.62
2019-05-19T06:05:50.246Z,19.37
2019-05-19T06:08:37.399Z,19.35
2019-05-19T06:11:25.592Z,22.17
2019-05-19T06:14:14.037Z,22.25
2019-05-19T06:17:01.178Z,20.35
2019-05-19T06:22:58.027Z,19.40
2019-05-19T06:25:44.925Z,20.40
2019-05-19T06:28:31.968Z,18.35
2019-05-19T06:31:20.075Z,19.35
2019-05-19T06:34:07.495Z,18.20
2019-05-19T06:36:55.158Z,21.02
2019-05-19T06:39:40.851Z,19.10
2019-05-19T06:45:38.699Z,19.02
2019-05-19T06:51:32.866Z,17.90
2019-05-19T06:54:19.932Z,18.42
2019-05-19T06:57:07.357Z,18.45
2019-05-19T06:59:54.317Z,17.83
2019-05-19T07:02:40.957Z,18.85
2019-05-19T07:05:29.529Z,17.75
2019-05-19T07:08:16.850Z,19.73
2019-05-19T07:11:04.224Z,18.08
2019-05-19T07:13:51.444Z,18.92
2019-05-19T07:16:38.509Z,18.87
2019-05-19T07:19:25.367Z,17.73
2019-05-19T07:22:12.625Z,16.55
2019-05-19T07:24:59.299Z,17.62
2019-05-19T07:27:46.655Z,16.98
2019-05-19T07:30:34.065Z,16.65
2019-05-19T07:33:20.831Z,16.87
2019-05-19T07:36:07.609Z,17.30
2019-05-19T07:39:08.959Z,16.65
2019-05-19T07:41:56.063Z,15.82
2019-05-19T07:44:45.402Z,15.20
2019-05-19T07:47:30.713Z,15.13
2019-05-19T07:50:17.633Z,14.55
2019-05-19T07:53:04.482Z,14.27
2019-05-19T07:55:51.230Z,14.43
2019-05-19T07:58:38.532Z,14.75
2019-05-19T08:01:25.582Z,13.88
2019-05-19T08:04:12.352Z,13.77
2019-05-19T08:06:59.382Z,13.93
2019-05-19T08:09:46.823Z,13.90
2019-05-19T08:12:33.577Z,13.45
2019-05-19T08:15:20.934Z,13.75
2019-05-19T08:18:08.122Z,14.15
2019-05-19T08:20:55.286Z,14.32
2019-05-19T08:23:56.847Z,13.02
2019-05-19T08:26:29.422Z,14.15
2019-05-19T08:29:16.263Z,13.60
2019-05-19T08:32:03.429Z,14.07
2019-05-19T08:34:50.698Z,13.75
2019-05-19T08:37:37.579Z,15.40
2019-05-19T08:46:37.617Z,13.07
2019-05-19T08:58:43.292Z,12.18
2019-05-19T09:01:31.453Z,11.88
2019-05-19T09:04:18.153Z,11.88
2019-05-19T09:07:05.151Z,11.70
2019-05-19T09:12:58.152Z,11.27
2019-05-19T09:15:45.337Z,11.38
2019-05-19T09:18:33.263Z,10.73
2019-05-19T09:24:33.121Z,11.95
2019-05-19T09:30:25.971Z,11.15
2019-05-19T09:33:13.034Z,11.77
2019-05-19T09:36:00.179Z,11.07
2019-05-19T09:38:47.113Z,11.00
2019-05-19T09:41:33.849Z,10.10
2019-05-19T09:44:35.296Z,11.73
2019-05-19T09:47:24.123Z,11.57
2019-05-19T09:50:11.198Z,10.55
2019-05-19T09:52:59.367Z,11.32
2019-05-19T09:55:46.902Z,11.12
2019-05-19T09:58:35.130Z,10.43
2019-05-19T10:01:23.785Z,10.57
2019-05-19T10:04:11.670Z,10.13
2019-05-19T10:06:58.342Z,11.20
2019-05-19T10:09:57.726Z,10.15
2019-05-19T10:12:48.223Z,10.82
2019-05-19T10:15:35.063Z,10.32
2019-05-19T10:18:22.759Z,10.77
2019-05-19T10:21:11.711Z,10.02
2019-05-19T10:24:04.582Z,9.50
2019-05-19T10:26:51.920Z,9.38
2019-05-19T10:29:38.877Z,9.38
2019-05-19T10:32:25.966Z,9.45
2019-05-19T10:35:16.206Z,9.68
2019-05-19T10:38:03.326Z,10.13
2019-05-19T10:40:50.060Z,9.00
2019-05-19T10:43:37.543Z,8.88
2019-05-19T10:49:31.858Z,8.60
2019-05-19T10:52:19.647Z,8.98
2019-05-19T10:55:06.426Z,9.32
2019-05-19T10:57:54.541Z,9.60
2019-05-19T11:00:49.100Z,8.98
2019-05-19T11:03:36.298Z,8.45
2019-05-19T11:24:59.579Z,8.35
2019-05-19T11:31:08.999Z,7.62
2019-05-19T11:33:55.835Z,7.95
2019-05-19T11:36:42.947Z,7.12
2019-05-19T11:39:29.973Z,8.70
2019-05-19T11:51:35.141Z,6.90
2019-05-19T11:54:21.934Z,6.82
2019-05-19T11:57:08.601Z,6.90
2019-05-19T12:03:01.319Z,8.32
2019-05-19T12:05:49.319Z,7.00
2019-05-19T12:11:42.843Z,8.30
2019-05-19T12:14:29.505Z,8.73
2019-05-19T12:17:16.336Z,7.37
2019-05-19T12:20:03.252Z,5.72
2019-05-19T12:22:50.385Z,5.70
2019-05-19T12:25:40.785Z,6.22
2019-05-19T12:28:27.877Z,6.45
2019-05-19T12:31:29.550Z,6.57
2019-05-19T12:34:16.343Z,5.97
2019-05-19T12:37:03.078Z,6.40
2019-05-19T12:39:50.646Z,6.68
2019-05-19T12:42:37.669Z,5.72
2019-05-19T12:45:24.916Z,5.75
2019-05-19T12:48:12.055Z,7.10
2019-05-19T12:50:58.991Z,6.72
2019-05-19T12:53:46.003Z,5.70
2019-05-19T12:56:39.849Z,6.28
2019-05-19T13:02:26.349Z,5.35
2019-05-19T13:05:13.017Z,5.87
2019-05-19T13:08:00.057Z,6.30
2019-05-19T13:10:47.774Z,10.75
2019-05-19T13:13:35.812Z,5.90
2019-05-19T13:16:23.767Z,6.70
2019-05-19T13:19:10.984Z,6.03
2019-05-19T13:22:00.127Z,5.35
2019-05-19T13:27:53.722Z,6.65
2019-05-19T13:30:43.533Z,6.45
2019-05-19T13:33:29.060Z,5.43
2019-05-19T13:36:17.714Z,5.95
2019-05-19T13:39:05.878Z,5.43
2019-05-19T13:41:52.636Z,6.05
2019-05-19T13:44:41.023Z,6.28
2019-05-19T13:47:28.738Z,5.60
2019-05-19T13:50:15.477Z,5.35
2019-05-19T13:53:16.844Z,5.45
2019-05-19T13:56:04.074Z,5.12
2019-05-19T13:58:50.663Z,5.15
2019-05-19T14:01:37.473Z,4.90
2019-05-19T14:07:30.731Z,4.53
2019-05-19T14:10:18.163Z,4.78
2019-05-19T14:16:11.255Z,4.50
2019-05-19T14:19:01.692Z,5.78
2019-05-19T14:21:48.869Z,5.82
2019-05-19T14:24:35.621Z,4.87
2019-05-19T14:27:30.438Z,4.97
2019-05-19T14:36:23.676Z,4.90
2019-05-19T14:39:10.609Z,5.30
2019-05-19T14:41:58.185Z,4.90
2019-05-19T14:44:45.864Z,5.30
2019-05-19T14:47:34.010Z,5.57
2019-05-19T14:53:28.174Z,5.57
2019-05-19T14:56:18.603Z,5.90
2019-05-19T14:59:06.806Z,5.80
2019-05-19T15:01:54.252Z,5.35
2019-05-19T15:04:45.010Z,5.28
2019-05-19T15:10:43.953Z,5.53
2019-05-19T15:16:43.065Z,5.30
2019-05-19T15:22:37.289Z,5.22
2019-05-19T15:28:31.158Z,4.35
2019-05-19T15:31:20.913Z,4.57
2019-05-19T15:34:08.060Z,4.80
2019-05-19T15:36:58.135Z,4.70
2019-05-19T15:42:53.850Z,5.30
2019-05-19T15:45:39.318Z,4.62
2019-05-19T15:48:26.035Z,5.22
2019-05-19T15:51:13.248Z,4.80
2019-05-19T15:54:00.394Z,4.85
2019-05-19T15:56:47.309Z,4.70
2019-05-19T15:59:35.732Z,5.18
2019-05-19T16:02:22.617Z,4.90
2019-05-19T16:05:09.612Z,5.10
2019-05-19T16:07:58.313Z,4.40
2019-05-19T16:13:51.964Z,4.37
2019-05-19T16:16:38.910Z,4.82
2019-05-19T16:19:27.545Z,4.78
2019-05-19T16:22:14.828Z,4.12
2019-05-19T16:28:08.247Z,5.18
2019-05-19T16:30:55.345Z,4.43
2019-05-19T16:33:43.380Z,4.72
2019-05-19T16:36:30.433Z,4.20
2019-05-19T16:42:24.684Z,4.47
2019-05-19T16:45:11.529Z,4.03
2019-05-19T16:47:58.829Z,3.97
2019-05-19T16:50:45.979Z,4.20
2019-05-19T16:53:33.274Z,4.47
2019-05-19T16:56:22.522Z,3.85
2019-05-19T16:59:09.434Z,4.37
2019-05-19T17:01:57.263Z,4.80
2019-05-19T17:04:44.296Z,4.47
2019-05-19T17:07:31.477Z,4.68
2019-05-19T17:10:18.617Z,4.90
2019-05-19T17:13:05.629Z,4.60
2019-05-19T17:15:52.376Z,4.25
2019-05-19T17:18:40.790Z,4.53
2019-05-19T17:21:28.096Z,4.70
2019-05-19T17:24:15.327Z,4.43
2019-05-19T17:27:02.367Z,4.28
2019-05-19T17:29:49.274Z,4.00
2019-05-19T17:32:36.613Z,4.53
2019-05-19T17:35:24.225Z,4.60
2019-05-19T17:38:11.243Z,4.72
2019-05-19T17:40:59.584Z,4.53
2019-05-19T17:43:46.420Z,4.43
2019-05-19T17:46:33.673Z,4.62
2019-05-19T17:49:21.065Z,4.40
2019-05-19T17:52:07.850Z,4.47
2019-05-19T17:54:55.048Z,4.87
2019-05-19T17:57:57.445Z,4.15
2019-05-19T18:00:45.890Z,4.90
2019-05-19T18:03:33.383Z,4.53
2019-05-19T18:06:20.299Z,4.15
2019-05-19T18:09:21.757Z,4.75
2019-05-19T18:12:08.472Z,4.75
2019-05-19T18:14:55.388Z,4.28
2019-05-19T18:17:42.430Z,4.55
2019-05-19T18:20:29.519Z,4.70
2019-05-19T18:23:23.493Z,4.32
2019-05-19T18:26:10.830Z,4.47
2019-05-19T18:28:57.695Z,4.85
2019-05-19T18:31:45.174Z,4.87
2019-05-19T18:34:33.070Z,5.12
2019-05-19T18:37:20.114Z,4.70
2019-05-19T18:43:14.159Z,4.35
2019-05-19T18:46:01.190Z,4.10
2019-05-19T18:48:48.510Z,5.35
2019-05-19T18:51:35.630Z,4.18
2019-05-19T18:54:23.161Z,5.25
2019-05-19T18:57:10.194Z,5.05
2019-05-19T18:59:57.064Z,5.07
2019-05-19T19:02:44.030Z,4.82
2019-05-19T19:05:31.451Z,5.35
2019-05-19T19:08:19.649Z,4.87
2019-05-19T19:11:07.379Z,4.78
2019-05-19T19:13:54.290Z,4.85
2019-05-19T19:16:40.997Z,6.03
2019-05-19T19:19:28.218Z,5.97
2019-05-19T19:22:14.946Z,5.43
2019-05-19T19:25:01.736Z,4.57
2019-05-19T19:27:49.538Z,4.30
2019-05-19T19:30:36.761Z,5.12
2019-05-19T19:33:24.636Z,5.07
2019-05-19T19:36:11.755Z,5.97
2019-05-19T19:38:59.669Z,5.93
2019-05-19T19:42:01.327Z,6.60
2019-05-19T19:44:55.041Z,5.97
2019-05-19T19:50:48.198Z,5.90
2019-05-19T19:53:36.093Z,6.35
2019-05-19T19:56:23.352Z,6.32
2019-05-19T19:59:11.451Z,6.90
2019-05-19T20:02:12.712Z,5.15
2019-05-19T20:04:59.523Z,4.87
2019-05-19T20:07:46.519Z,4.50
2019-05-19T20:10:40.085Z,5.95
2019-05-19T20:13:27.217Z,7.12
2019-05-19T20:16:14.214Z,5.78
2019-05-19T20:19:01.576Z,7.62
2019-05-19T20:21:51.873Z,6.70
2019-05-19T20:27:45.023Z,8.15
2019-05-19T20:30:36.204Z,7.55
2019-05-19T20:33:19.978Z,7.95
2019-05-19T20:36:06.991Z,7.75
2019-05-19T20:42:08.317Z,8.68
2019-05-19T20:44:55.657Z,8.15
2019-05-19T20:47:44.656Z,8.77
2019-05-19T20:50:34.636Z,8.52
2019-05-19T20:53:22.438Z,9.63
2019-05-19T20:56:10.126Z,9.07
2019-05-19T20:58:57.877Z,8.90
2019-05-19T21:01:45.170Z,9.90
2019-05-19T21:04:31.748Z,10.25
2019-05-19T21:07:21.301Z,9.63
2019-05-19T21:10:05.861Z,10.05
2019-05-19T21:12:53.576Z,10.38
2019-05-19T21:15:40.632Z,10.30
2019-05-19T21:18:27.375Z,11.07
2019-05-19T21:21:22.016Z,11.48
2019-05-19T21:24:11.573Z,12.25
2019-05-19T21:26:57.049Z,10.90
2019-05-19T21:29:44.199Z,11.07
2019-05-19T21:32:30.881Z,10.75
2019-05-19T21:35:18.661Z,10.98
2019-05-19T21:38:06.248Z,10.93
2019-05-19T21:40:53.744Z,10.63
2019-05-19T21:43:41.363Z,11.12
2019-05-19T21:46:28.236Z,10.20
2019-05-19T21:49:15.340Z,11.10
2019-05-19T21:52:02.266Z,11.77
2019-05-19T21:54:49.590Z,11.52
2019-05-19T21:57:43.861Z,11.18
2019-05-19T22:00:30.462Z,11.95
2019-05-19T22:03:18.398Z,10.98
2019-05-19T22:06:06.315Z,12.55
2019-05-19T22:08:53.255Z,11.75
2019-05-19T22:11:39.982Z,12.15
2019-05-19T22:14:27.404Z,10.65
2019-05-19T22:17:14.894Z,9.85
2019-05-19T22:20:02.109Z,10.02
2019-05-19T22:22:50.233Z,9.45
2019-05-19T22:25:51.320Z,8.90
2019-05-19T22:28:38.438Z,11.75
2019-05-19T22:31:36.280Z,10.80
2019-05-19T22:34:12.874Z,11.45
2019-05-19T22:36:59.579Z,11.90
2019-05-19T22:39:46.784Z,11.38
2019-05-19T22:42:35.726Z,12.55
2019-05-19T22:45:22.884Z,12.37
2019-05-19T22:48:09.683Z,12.52
2019-05-19T22:50:56.582Z,11.68
2019-05-19T22:53:44.015Z,12.52
2019-05-19T22:56:31.179Z,13.48
2019-05-19T22:59:19.985Z,14.43
2019-05-19T23:02:05.645Z,13.52
2019-05-19T23:04:53.596Z,14.35
2019-05-19T23:07:48.494Z,14.05
2019-05-19T23:10:36.252Z,13.80
2019-05-19T23:13:23.133Z,13.50
2019-05-19T23:19:16.097Z,14.13
2019-05-19T23:22:03.737Z,13.93
2019-05-19T23:24:50.522Z,13.62
2019-05-19T23:27:37.759Z,14.07
2019-05-19T23:30:24.841Z,13.88
2019-05-19T23:33:11.645Z,14.20
2019-05-19T23:35:59.472Z,16.00
2019-05-19T23:38:47.455Z,15.63
2019-05-19T23:41:34.608Z,14.77
2019-05-19T23:44:28.663Z,17.27
2019-05-19T23:47:16.261Z,15.02
2019-05-19T23:50:03.201Z,15.27
2019-05-19T23:52:52.395Z,14.82
2019-05-19T23:55:40.407Z,15.00
2019-05-19T23:58:34.351Z,15.10
